CRL910D FMEE-HTZA
Flight info
| Callsign | CRL910D |
|---|---|
| Flight time | 2h 53m |
| Altitude | 34000 |
| Route | DOBUT2J DOBUT UB790 KINAN UT913 AVEKI UVDOG |
| Aircraft | B742/H-VGDW/C |
Departure
| Time | 2026-04-29 15:15 |
|---|---|
| Airport | Roland Garros Airport (FMEE) |
Arrival
| Time | 2026-04-29 18:09 |
|---|---|
| Airport | Abeid Amani Karume International Airport (HTZA) |
| Time | Latitude | Longitude | Altitude | Speed | Heading |
|---|---|---|---|---|---|
| 2026-04-29 14:27 | -20.88963 | 55.50985 | 126 ft | 0 kts | 207° |
| 2026-04-29 14:58 | -20.88953 | 55.50991 | 123 ft | 2 kts | 207° |
| 2026-04-29 14:58 | -20.88940 | 55.50998 | 122 ft | 2 kts | 207° |
| 2026-04-29 14:59 | -20.88927 | 55.51006 | 120 ft | 2 kts | 214° |
| 2026-04-29 14:59 | -20.88916 | 55.51017 | 119 ft | 2 kts | 234° |
| 2026-04-29 14:59 | -20.88909 | 55.51031 | 118 ft | 2 kts | 250° |
| 2026-04-29 14:59 | -20.88905 | 55.51046 | 118 ft | 2 kts | 266° |
| 2026-04-29 15:00 | -20.88906 | 55.51062 | 118 ft | 2 kts | 283° |
| 2026-04-29 15:00 | -20.88911 | 55.51077 | 118 ft | 2 kts | 299° |
| 2026-04-29 15:00 | -20.88919 | 55.51091 | 118 ft | 2 kts | 300° |
| 2026-04-29 15:00 | -20.88926 | 55.51105 | 118 ft | 2 kts | 298° |
| 2026-04-29 15:01 | -20.88933 | 55.51119 | 118 ft | 2 kts | 298° |
| 2026-04-29 15:01 | -20.88940 | 55.51133 | 119 ft | 2 kts | 298° |
| 2026-04-29 15:01 | -20.88947 | 55.51147 | 119 ft | 2 kts | 298° |
| 2026-04-29 15:01 | -20.88954 | 55.51162 | 119 ft | 2 kts | 298° |
| 2026-04-29 15:02 | -20.88961 | 55.51176 | 120 ft | 2 kts | 298° |
| 2026-04-29 15:02 | -20.88965 | 55.51183 | 120 ft | 0 kts | 298° |
| 2026-04-29 15:08 | -20.88964 | 55.51182 | 120 ft | 0 kts | 304° |
| 2026-04-29 15:08 | -20.88949 | 55.51176 | 119 ft | 5 kts | 359° |
| 2026-04-29 15:09 | -20.88903 | 55.51174 | 115 ft | 3 kts | 346° |
| 2026-04-29 15:09 | -20.88902 | 55.51174 | 115 ft | 0 kts | 346° |
| 2026-04-29 15:09 | -20.88897 | 55.51173 | 115 ft | 2 kts | 345° |
| 2026-04-29 15:10 | -20.88871 | 55.51165 | 113 ft | 5 kts | 345° |
| 2026-04-29 15:10 | -20.88819 | 55.51149 | 109 ft | 9 kts | 341° |
| 2026-04-29 15:10 | -20.88752 | 55.51109 | 105 ft | 12 kts | 324° |
| 2026-04-29 15:10 | -20.88710 | 55.51030 | 103 ft | 12 kts | 282° |
| 2026-04-29 15:11 | -20.88693 | 55.50945 | 102 ft | 11 kts | 281° |
| 2026-04-29 15:11 | -20.88676 | 55.50862 | 101 ft | 11 kts | 282° |
| 2026-04-29 15:11 | -20.88660 | 55.50783 | 101 ft | 9 kts | 282° |
| 2026-04-29 15:11 | -20.88647 | 55.50717 | 101 ft | 8 kts | 282° |
| 2026-04-29 15:12 | -20.88636 | 55.50662 | 102 ft | 7 kts | 282° |
| 2026-04-29 15:12 | -20.88629 | 55.50626 | 101 ft | 7 kts | 282° |
| 2026-04-29 15:12 | -20.88599 | 55.50542 | 98 ft | 10 kts | 305° |
| 2026-04-29 15:12 | -20.88576 | 55.50496 | 96 ft | 4 kts | 244° |
| 2026-04-29 15:13 | -20.88591 | 55.50488 | 96 ft | 0 kts | 159° |
| 2026-04-29 15:13 | -20.88598 | 55.50493 | 97 ft | 2 kts | 133° |
| 2026-04-29 15:13 | -20.88608 | 55.50525 | 98 ft | 6 kts | 103° |
| 2026-04-29 15:13 | -20.88613 | 55.50554 | 99 ft | 1 kts | 102° |
| 2026-04-29 15:14 | -20.88614 | 55.50555 | 99 ft | 0 kts | 102° |
| 2026-04-29 15:14 | -20.88615 | 55.50563 | 99 ft | 5 kts | 102° |
| 2026-04-29 15:14 | -20.88666 | 55.50815 | 101 ft | 66 kts | 103° |
| 2026-04-29 15:14 | -20.88807 | 55.51501 | 102 ft | 123 kts | 102° |
| 2026-04-29 15:15 | -20.89025 | 55.52581 | 161 ft | 165 kts | 101° |
| 2026-04-29 15:15 | -20.89258 | 55.53778 | 655 ft | 165 kts | 100° |
| 2026-04-29 15:15 | -20.89194 | 55.54998 | 1053 ft | 172 kts | 61° |
| 2026-04-29 15:15 | -20.88305 | 55.55820 | 1502 ft | 177 kts | 15° |
| 2026-04-29 15:16 | -20.87043 | 55.55776 | 1954 ft | 186 kts | 349° |
| 2026-04-29 15:16 | -20.85716 | 55.55661 | 2373 ft | 198 kts | 1° |
| 2026-04-29 15:16 | -20.84286 | 55.55683 | 2723 ft | 208 kts | 2° |
| 2026-04-29 15:16 | -20.82813 | 55.55736 | 2887 ft | 217 kts | 4° |
| 2026-04-29 15:17 | -20.81279 | 55.55821 | 3124 ft | 224 kts | 4° |
| 2026-04-29 15:17 | -20.79713 | 55.55865 | 3522 ft | 222 kts | 0° |
| 2026-04-29 15:17 | -20.78193 | 55.55901 | 3918 ft | 219 kts | 0° |
| 2026-04-29 15:17 | -20.77165 | 55.55738 | 3957 ft | 229 kts | 340° |
| 2026-04-29 15:18 | -20.75157 | 55.54841 | 4231 ft | 239 kts | 338° |
| 2026-04-29 15:18 | -20.73619 | 55.54116 | 4362 ft | 251 kts | 337° |
| 2026-04-29 15:18 | -20.71939 | 55.53332 | 4470 ft | 267 kts | 338° |
| 2026-04-29 15:18 | -20.70204 | 55.52544 | 4849 ft | 272 kts | 338° |
| 2026-04-29 15:19 | -20.68485 | 55.51771 | 5451 ft | 268 kts | 339° |
| 2026-04-29 15:19 | -20.66706 | 55.51036 | 5644 ft | 279 kts | 340° |
| 2026-04-29 15:19 | -20.64893 | 55.50281 | 6185 ft | 278 kts | 338° |
| 2026-04-29 15:19 | -20.63068 | 55.49500 | 6509 ft | 285 kts | 339° |
| 2026-04-29 15:20 | -20.61235 | 55.48711 | 7063 ft | 283 kts | 337° |
| 2026-04-29 15:20 | -20.59436 | 55.47910 | 7514 ft | 284 kts | 338° |
| 2026-04-29 15:20 | -20.57685 | 55.46889 | 7880 ft | 289 kts | 317° |
| 2026-04-29 15:20 | -20.56380 | 55.45280 | 8319 ft | 289 kts | 306° |
| 2026-04-29 15:21 | -20.55178 | 55.43517 | 8770 ft | 291 kts | 306° |
| 2026-04-29 15:21 | -20.53981 | 55.41765 | 9200 ft | 294 kts | 306° |
| 2026-04-29 15:21 | -20.52748 | 55.39989 | 9663 ft | 295 kts | 307° |
| 2026-04-29 15:21 | -20.51523 | 55.38238 | 10098 ft | 297 kts | 307° |
| 2026-04-29 15:22 | -20.50276 | 55.36462 | 10550 ft | 299 kts | 307° |
| 2026-04-29 15:22 | -20.49008 | 55.34659 | 10693 ft | 313 kts | 307° |
| 2026-04-29 15:22 | -20.47664 | 55.32764 | 10832 ft | 327 kts | 308° |
| 2026-04-29 15:22 | -20.46258 | 55.30785 | 10970 ft | 342 kts | 307° |
| 2026-04-29 15:23 | -20.44789 | 55.28707 | 11107 ft | 356 kts | 307° |
| 2026-04-29 15:23 | -20.43271 | 55.26553 | 11243 ft | 370 kts | 307° |
| 2026-04-29 15:23 | -20.41711 | 55.24339 | 11392 ft | 383 kts | 307° |
| 2026-04-29 15:23 | -20.40093 | 55.22044 | 11934 ft | 383 kts | 307° |
| 2026-04-29 15:24 | -20.38487 | 55.19765 | 12424 ft | 386 kts | 307° |
| 2026-04-29 15:24 | -20.36868 | 55.17470 | 12899 ft | 388 kts | 307° |
| 2026-04-29 15:24 | -20.35244 | 55.15167 | 13343 ft | 391 kts | 307° |
| 2026-04-29 15:24 | -20.33611 | 55.12853 | 13768 ft | 395 kts | 307° |
| 2026-04-29 15:25 | -20.31951 | 55.10502 | 14181 ft | 399 kts | 307° |
| 2026-04-29 15:25 | -20.30273 | 55.08125 | 14644 ft | 401 kts | 306° |
| 2026-04-29 15:25 | -20.28587 | 55.05739 | 15098 ft | 403 kts | 306° |
| 2026-04-29 15:25 | -20.26888 | 55.03336 | 15525 ft | 406 kts | 306° |
| 2026-04-29 15:26 | -20.25172 | 55.00908 | 15941 ft | 409 kts | 306° |
| 2026-04-29 15:26 | -20.23454 | 54.98479 | 16345 ft | 412 kts | 306° |
| 2026-04-29 15:26 | -20.21738 | 54.96053 | 16727 ft | 416 kts | 305° |
| 2026-04-29 15:26 | -20.19980 | 54.93569 | 17135 ft | 419 kts | 305° |
| 2026-04-29 15:27 | -20.18217 | 54.91079 | 17538 ft | 421 kts | 305° |
| 2026-04-29 15:27 | -20.16438 | 54.88566 | 17900 ft | 425 kts | 305° |
| 2026-04-29 15:27 | -20.14670 | 54.86069 | 18315 ft | 427 kts | 305° |
| 2026-04-29 15:27 | -20.12854 | 54.83507 | 18707 ft | 431 kts | 306° |
| 2026-04-29 15:28 | -20.11053 | 54.80967 | 19103 ft | 433 kts | 306° |
| 2026-04-29 15:28 | -20.09819 | 54.79229 | 19361 ft | 435 kts | 306° |
| 2026-04-29 15:28 | -20.07383 | 54.75796 | 19886 ft | 439 kts | 306° |
| 2026-04-29 15:28 | -20.05544 | 54.73208 | 20223 ft | 443 kts | 306° |
| 2026-04-29 15:29 | -20.03663 | 54.70559 | 20634 ft | 445 kts | 306° |
| 2026-04-29 15:29 | -19.99902 | 54.65270 | 21343 ft | 451 kts | 306° |
| 2026-04-29 15:30 | -19.96128 | 54.59964 | 22105 ft | 455 kts | 307° |
| 2026-04-29 15:30 | -19.94204 | 54.57263 | 22432 ft | 458 kts | 307° |
| 2026-04-29 15:30 | -19.92282 | 54.54566 | 22742 ft | 461 kts | 306° |
| 2026-04-29 15:30 | -19.90352 | 54.51859 | 23089 ft | 463 kts | 306° |
| 2026-04-29 15:31 | -19.88399 | 54.49118 | 23422 ft | 465 kts | 306° |
| 2026-04-29 15:31 | -19.86435 | 54.46362 | 23780 ft | 466 kts | 306° |
| 2026-04-29 15:31 | -19.84478 | 54.43617 | 24093 ft | 468 kts | 306° |
| 2026-04-29 15:31 | -19.82527 | 54.40883 | 24415 ft | 470 kts | 306° |
| 2026-04-29 15:32 | -19.80527 | 54.38081 | 24721 ft | 472 kts | 306° |
| 2026-04-29 15:32 | -19.78556 | 54.35321 | 25024 ft | 474 kts | 305° |
| 2026-04-29 15:32 | -19.76541 | 54.32514 | 25345 ft | 476 kts | 306° |
| 2026-04-29 15:32 | -19.74540 | 54.29742 | 25633 ft | 478 kts | 306° |
| 2026-04-29 15:33 | -19.72515 | 54.26935 | 25928 ft | 479 kts | 306° |
| 2026-04-29 15:33 | -19.70493 | 54.24125 | 26198 ft | 481 kts | 306° |
| 2026-04-29 15:33 | -19.68446 | 54.21276 | 26469 ft | 483 kts | 305° |
| 2026-04-29 15:33 | -19.66419 | 54.18450 | 26743 ft | 485 kts | 305° |
| 2026-04-29 15:34 | -19.64375 | 54.15600 | 27018 ft | 486 kts | 305° |
| 2026-04-29 15:34 | -19.62310 | 54.12722 | 27263 ft | 488 kts | 305° |
| 2026-04-29 15:34 | -19.60259 | 54.09861 | 27494 ft | 490 kts | 305° |
| 2026-04-29 15:34 | -19.58198 | 54.06991 | 27766 ft | 491 kts | 305° |
| 2026-04-29 15:35 | -19.56129 | 54.04110 | 27999 ft | 493 kts | 305° |
| 2026-04-29 15:35 | -19.54061 | 54.01231 | 28193 ft | 495 kts | 305° |
| 2026-04-29 15:35 | -19.51979 | 53.98320 | 28447 ft | 495 kts | 303° |
| 2026-04-29 15:35 | -19.50239 | 53.95164 | 28621 ft | 492 kts | 291° |
| 2026-04-29 15:36 | -19.48981 | 53.91799 | 28844 ft | 491 kts | 286° |
| 2026-04-29 15:36 | -19.47919 | 53.88379 | 29084 ft | 491 kts | 284° |
| 2026-04-29 15:36 | -19.46911 | 53.84949 | 29325 ft | 491 kts | 284° |
| 2026-04-29 15:36 | -19.45889 | 53.81480 | 29528 ft | 492 kts | 285° |
| 2026-04-29 15:37 | -19.44855 | 53.78035 | 29737 ft | 493 kts | 285° |
| 2026-04-29 15:37 | -19.43805 | 53.74595 | 29916 ft | 494 kts | 285° |
| 2026-04-29 15:37 | -19.42729 | 53.71115 | 30102 ft | 495 kts | 285° |
| 2026-04-29 15:37 | -19.41656 | 53.67668 | 30304 ft | 496 kts | 286° |
| 2026-04-29 15:38 | -19.40577 | 53.64215 | 30501 ft | 496 kts | 286° |
| 2026-04-29 15:38 | -19.39497 | 53.60761 | 30670 ft | 497 kts | 286° |
| 2026-04-29 15:38 | -19.38402 | 53.57267 | 30884 ft | 497 kts | 286° |
| 2026-04-29 15:38 | -19.37320 | 53.53817 | 31211 ft | 494 kts | 286° |
| 2026-04-29 15:39 | -19.36238 | 53.50369 | 31528 ft | 492 kts | 286° |
| 2026-04-29 15:39 | -19.35159 | 53.46930 | 31797 ft | 491 kts | 286° |
| 2026-04-29 15:39 | -19.34039 | 53.43543 | 32045 ft | 490 kts | 291° |
| 2026-04-29 15:39 | -19.32434 | 53.40393 | 32235 ft | 492 kts | 301° |
| 2026-04-29 15:40 | -19.30412 | 53.37436 | 32459 ft | 493 kts | 306° |
| 2026-04-29 15:40 | -19.28277 | 53.34624 | 32701 ft | 492 kts | 308° |
| 2026-04-29 15:40 | -19.26092 | 53.31841 | 33060 ft | 490 kts | 308° |
| 2026-04-29 15:40 | -19.23922 | 53.29081 | 33354 ft | 488 kts | 308° |
| 2026-04-29 15:41 | -19.21759 | 53.26297 | 33610 ft | 488 kts | 307° |
| 2026-04-29 15:41 | -19.19607 | 53.23495 | 33816 ft | 488 kts | 307° |
| 2026-04-29 15:41 | -19.17477 | 53.20700 | 33956 ft | 489 kts | 307° |
| 2026-04-29 15:42 | -19.13185 | 53.15036 | 33990 ft | 496 kts | 307° |
| 2026-04-29 15:42 | -19.08879 | 53.09350 | 33989 ft | 501 kts | 307° |
| 2026-04-29 15:43 | -19.04496 | 53.03567 | 33987 ft | 502 kts | 307° |
| 2026-04-29 15:43 | -19.00151 | 52.97844 | 33988 ft | 499 kts | 307° |
| 2026-04-29 15:44 | -18.95800 | 52.92116 | 33987 ft | 499 kts | 307° |
| 2026-04-29 15:44 | -18.91460 | 52.86407 | 33988 ft | 500 kts | 307° |
| 2026-04-29 15:45 | -18.87094 | 52.80669 | 33988 ft | 500 kts | 307° |
| 2026-04-29 15:45 | -18.82758 | 52.74972 | 33988 ft | 501 kts | 307° |
| 2026-04-29 15:46 | -18.78390 | 52.69241 | 33989 ft | 501 kts | 307° |
| 2026-04-29 15:46 | -18.73989 | 52.63474 | 33988 ft | 502 kts | 307° |
| 2026-04-29 15:47 | -18.69609 | 52.57740 | 33989 ft | 502 kts | 307° |
| 2026-04-29 15:47 | -18.65209 | 52.51985 | 33988 ft | 502 kts | 307° |
| 2026-04-29 15:48 | -18.60845 | 52.46283 | 33989 ft | 502 kts | 307° |
| 2026-04-29 15:48 | -18.56447 | 52.40541 | 33989 ft | 502 kts | 307° |
| 2026-04-29 15:49 | -18.52064 | 52.34824 | 33988 ft | 502 kts | 307° |
| 2026-04-29 15:49 | -18.47649 | 52.29108 | 33989 ft | 502 kts | 307° |
| 2026-04-29 15:50 | -18.43236 | 52.23395 | 33988 ft | 503 kts | 307° |
| 2026-04-29 15:50 | -18.38810 | 52.17645 | 33988 ft | 504 kts | 307° |
| 2026-04-29 15:51 | -18.34385 | 52.11894 | 33988 ft | 504 kts | 307° |
| 2026-04-29 15:51 | -18.29985 | 52.06181 | 33989 ft | 503 kts | 307° |
| 2026-04-29 15:52 | -18.25569 | 52.00451 | 33989 ft | 504 kts | 307° |
| 2026-04-29 15:52 | -18.21142 | 51.94713 | 33989 ft | 504 kts | 307° |
| 2026-04-29 15:53 | -18.16723 | 51.88990 | 33988 ft | 504 kts | 307° |
| 2026-04-29 15:53 | -18.12290 | 51.83254 | 33989 ft | 505 kts | 307° |
| 2026-04-29 15:54 | -18.07861 | 51.77528 | 33988 ft | 505 kts | 308° |
| 2026-04-29 15:54 | -18.03447 | 51.71828 | 33989 ft | 504 kts | 308° |
| 2026-04-29 15:55 | -17.98996 | 51.66084 | 33989 ft | 505 kts | 308° |
| 2026-04-29 15:55 | -17.94580 | 51.60390 | 33987 ft | 505 kts | 307° |
| 2026-04-29 15:56 | -17.90148 | 51.54681 | 33987 ft | 505 kts | 307° |
| 2026-04-29 15:56 | -17.85705 | 51.48960 | 33983 ft | 505 kts | 307° |
| 2026-04-29 15:57 | -17.81256 | 51.43236 | 33987 ft | 506 kts | 307° |
| 2026-04-29 15:57 | -17.76825 | 51.37543 | 33980 ft | 505 kts | 307° |
| 2026-04-29 15:58 | -17.72352 | 51.31815 | 33982 ft | 506 kts | 308° |
| 2026-04-29 15:58 | -17.67876 | 51.26117 | 33981 ft | 507 kts | 308° |
| 2026-04-29 15:59 | -17.63412 | 51.20412 | 33981 ft | 506 kts | 308° |
| 2026-04-29 15:59 | -17.58954 | 51.14707 | 33980 ft | 506 kts | 308° |
| 2026-04-29 16:00 | -17.54496 | 51.09005 | 33978 ft | 507 kts | 308° |
| 2026-04-29 16:00 | -17.50030 | 51.03296 | 33975 ft | 507 kts | 308° |
| 2026-04-29 16:01 | -17.45526 | 50.97545 | 33971 ft | 506 kts | 308° |
| 2026-04-29 16:01 | -17.41054 | 50.91840 | 33967 ft | 507 kts | 308° |
| 2026-04-29 16:02 | -17.36574 | 50.86131 | 33968 ft | 508 kts | 308° |
| 2026-04-29 16:02 | -17.32095 | 50.80428 | 33972 ft | 508 kts | 308° |
| 2026-04-29 16:03 | -17.27593 | 50.74701 | 33969 ft | 509 kts | 308° |
| 2026-04-29 16:03 | -17.23093 | 50.68982 | 33971 ft | 510 kts | 308° |
| 2026-04-29 16:04 | -17.18621 | 50.63302 | 33965 ft | 508 kts | 308° |
| 2026-04-29 16:04 | -17.14103 | 50.57569 | 33968 ft | 509 kts | 308° |
| 2026-04-29 16:05 | -17.09607 | 50.51868 | 33971 ft | 510 kts | 308° |
| 2026-04-29 16:05 | -17.05094 | 50.46151 | 33969 ft | 509 kts | 308° |
| 2026-04-29 16:06 | -17.00613 | 50.40481 | 33967 ft | 509 kts | 308° |
| 2026-04-29 16:06 | -16.96068 | 50.34732 | 33968 ft | 510 kts | 309° |
| 2026-04-29 16:07 | -16.91542 | 50.29049 | 33964 ft | 510 kts | 309° |
| 2026-04-29 16:07 | -16.87020 | 50.23367 | 33967 ft | 509 kts | 309° |
| 2026-04-29 16:08 | -16.82496 | 50.17664 | 33968 ft | 510 kts | 309° |
| 2026-04-29 16:08 | -16.77929 | 50.11905 | 33971 ft | 512 kts | 309° |
| 2026-04-29 16:09 | -16.73397 | 50.06197 | 33982 ft | 511 kts | 309° |
| 2026-04-29 16:09 | -16.68882 | 50.00515 | 33982 ft | 511 kts | 309° |
| 2026-04-29 16:10 | -16.64337 | 49.94801 | 33991 ft | 510 kts | 309° |
| 2026-04-29 16:10 | -16.59809 | 49.89110 | 34000 ft | 511 kts | 309° |
| 2026-04-29 16:11 | -16.55253 | 49.83390 | 34010 ft | 513 kts | 309° |
| 2026-04-29 16:11 | -16.50671 | 49.77642 | 34023 ft | 512 kts | 309° |
| 2026-04-29 16:12 | -16.46113 | 49.71930 | 34035 ft | 511 kts | 309° |
| 2026-04-29 16:12 | -16.41575 | 49.66245 | 34044 ft | 511 kts | 309° |
| 2026-04-29 16:13 | -16.37003 | 49.60525 | 34050 ft | 513 kts | 309° |
| 2026-04-29 16:13 | -16.32444 | 49.54823 | 34058 ft | 513 kts | 309° |
| 2026-04-29 16:14 | -16.27852 | 49.49088 | 34059 ft | 513 kts | 309° |
| 2026-04-29 16:14 | -16.23271 | 49.43368 | 34067 ft | 513 kts | 309° |
| 2026-04-29 16:15 | -16.18720 | 49.37690 | 34080 ft | 513 kts | 309° |
| 2026-04-29 16:15 | -16.14132 | 49.31984 | 34103 ft | 513 kts | 309° |
| 2026-04-29 16:16 | -16.09498 | 49.26252 | 34113 ft | 513 kts | 309° |
| 2026-04-29 16:16 | -16.04919 | 49.20569 | 34124 ft | 515 kts | 309° |
| 2026-04-29 16:17 | -16.00296 | 49.14823 | 34124 ft | 514 kts | 309° |
| 2026-04-29 16:17 | -15.95712 | 49.09127 | 34125 ft | 513 kts | 309° |
| 2026-04-29 16:18 | -15.91125 | 49.03432 | 34128 ft | 515 kts | 309° |
| 2026-04-29 16:18 | -15.86522 | 48.97720 | 34125 ft | 516 kts | 309° |
| 2026-04-29 16:19 | -15.81909 | 48.91998 | 34113 ft | 515 kts | 309° |
| 2026-04-29 16:19 | -15.77304 | 48.86293 | 34106 ft | 516 kts | 309° |
| 2026-04-29 16:20 | -15.72677 | 48.80567 | 34098 ft | 516 kts | 309° |
| 2026-04-29 16:20 | -15.68063 | 48.74862 | 34098 ft | 516 kts | 309° |
| 2026-04-29 16:21 | -15.63441 | 48.69150 | 34093 ft | 516 kts | 309° |
| 2026-04-29 16:21 | -15.58830 | 48.63456 | 34093 ft | 516 kts | 309° |
| 2026-04-29 16:22 | -15.54177 | 48.57717 | 34086 ft | 517 kts | 309° |
| 2026-04-29 16:22 | -15.49561 | 48.52025 | 34088 ft | 516 kts | 309° |
| 2026-04-29 16:23 | -15.44919 | 48.46307 | 34073 ft | 518 kts | 309° |
| 2026-04-29 16:23 | -15.40284 | 48.40602 | 34045 ft | 519 kts | 309° |
| 2026-04-29 16:24 | -15.35618 | 48.34863 | 34031 ft | 518 kts | 309° |
| 2026-04-29 16:24 | -15.30974 | 48.29186 | 34020 ft | 518 kts | 310° |
| 2026-04-29 16:25 | -15.26325 | 48.23503 | 34002 ft | 518 kts | 310° |
| 2026-04-29 16:25 | -15.21668 | 48.17795 | 33991 ft | 518 kts | 309° |
| 2026-04-29 16:26 | -15.16997 | 48.12067 | 33981 ft | 519 kts | 309° |
| 2026-04-29 16:26 | -15.12341 | 48.06361 | 33964 ft | 521 kts | 309° |
| 2026-04-29 16:27 | -15.07647 | 48.00612 | 33953 ft | 520 kts | 310° |
| 2026-04-29 16:27 | -15.02962 | 47.94881 | 33947 ft | 520 kts | 309° |
| 2026-04-29 16:28 | -14.98288 | 47.89166 | 33948 ft | 521 kts | 309° |
| 2026-04-29 16:28 | -14.93592 | 47.83429 | 33952 ft | 521 kts | 310° |
| 2026-04-29 16:29 | -14.88930 | 47.77737 | 33951 ft | 518 kts | 310° |
| 2026-04-29 16:29 | -14.84267 | 47.72046 | 33956 ft | 520 kts | 310° |
| 2026-04-29 16:30 | -14.79570 | 47.66319 | 33955 ft | 523 kts | 310° |
| 2026-04-29 16:30 | -14.74863 | 47.60584 | 33948 ft | 522 kts | 310° |
| 2026-04-29 16:31 | -14.70171 | 47.54874 | 33943 ft | 520 kts | 310° |
| 2026-04-29 16:31 | -14.65455 | 47.49137 | 33938 ft | 522 kts | 310° |
| 2026-04-29 16:32 | -14.60738 | 47.43404 | 33938 ft | 523 kts | 310° |
| 2026-04-29 16:32 | -14.56039 | 47.37698 | 33937 ft | 521 kts | 310° |
| 2026-04-29 16:33 | -14.48971 | 47.29150 | 33936 ft | 522 kts | 310° |
| 2026-04-29 16:33 | -14.44238 | 47.23438 | 33932 ft | 523 kts | 310° |
| 2026-04-29 16:34 | -14.39542 | 47.17755 | 33932 ft | 523 kts | 310° |
| 2026-04-29 16:34 | -14.34798 | 47.12011 | 33932 ft | 524 kts | 310° |
| 2026-04-29 16:35 | -14.30066 | 47.06285 | 33929 ft | 523 kts | 310° |
| 2026-04-29 16:35 | -14.25360 | 47.00596 | 33928 ft | 523 kts | 310° |
| 2026-04-29 16:36 | -14.20618 | 46.94867 | 33927 ft | 523 kts | 310° |
| 2026-04-29 16:36 | -14.15928 | 46.89206 | 33928 ft | 523 kts | 310° |
| 2026-04-29 16:37 | -14.11184 | 46.83483 | 33927 ft | 522 kts | 310° |
| 2026-04-29 16:37 | -14.07248 | 46.78738 | 33927 ft | 523 kts | 310° |
| 2026-04-29 16:38 | -14.01721 | 46.72080 | 33927 ft | 526 kts | 310° |
| 2026-04-29 16:38 | -13.96958 | 46.66345 | 33927 ft | 525 kts | 310° |
| 2026-04-29 16:39 | -13.92215 | 46.60639 | 33927 ft | 525 kts | 310° |
| 2026-04-29 16:39 | -13.87469 | 46.54933 | 33933 ft | 525 kts | 310° |
| 2026-04-29 16:40 | -13.82718 | 46.49222 | 33939 ft | 524 kts | 310° |
| 2026-04-29 16:40 | -13.77958 | 46.43507 | 33941 ft | 524 kts | 310° |
| 2026-04-29 16:41 | -13.73225 | 46.37828 | 33941 ft | 523 kts | 310° |
| 2026-04-29 16:41 | -13.68442 | 46.32103 | 33942 ft | 524 kts | 311° |
| 2026-04-29 16:42 | -13.63680 | 46.26432 | 33943 ft | 525 kts | 311° |
| 2026-04-29 16:42 | -13.58920 | 46.20747 | 33944 ft | 525 kts | 311° |
| 2026-04-29 16:43 | -13.54177 | 46.15073 | 33946 ft | 523 kts | 311° |
| 2026-04-29 16:43 | -13.49433 | 46.09399 | 33948 ft | 524 kts | 311° |
| 2026-04-29 16:44 | -13.44658 | 46.03691 | 33947 ft | 523 kts | 311° |
| 2026-04-29 16:44 | -13.39921 | 45.98033 | 33948 ft | 523 kts | 311° |
| 2026-04-29 16:45 | -13.35169 | 45.92361 | 33948 ft | 524 kts | 311° |
| 2026-04-29 16:45 | -13.30394 | 45.86666 | 33947 ft | 524 kts | 311° |
| 2026-04-29 16:46 | -13.25621 | 45.80976 | 33948 ft | 523 kts | 311° |
| 2026-04-29 16:46 | -13.20885 | 45.75335 | 33947 ft | 524 kts | 311° |
| 2026-04-29 16:47 | -13.16114 | 45.69655 | 33947 ft | 524 kts | 311° |
| 2026-04-29 16:47 | -13.11349 | 45.63987 | 33947 ft | 523 kts | 311° |
| 2026-04-29 16:48 | -13.06583 | 45.58321 | 33947 ft | 523 kts | 311° |
| 2026-04-29 16:48 | -13.01814 | 45.52655 | 33947 ft | 523 kts | 311° |
| 2026-04-29 16:49 | -12.97059 | 45.47009 | 33946 ft | 521 kts | 311° |
| 2026-04-29 16:49 | -12.92312 | 45.41376 | 33947 ft | 523 kts | 311° |
| 2026-04-29 16:50 | -12.87542 | 45.35720 | 33946 ft | 524 kts | 311° |
| 2026-04-29 16:50 | -12.82745 | 45.30053 | 33945 ft | 523 kts | 311° |
| 2026-04-29 16:51 | -12.78388 | 45.24125 | 33948 ft | 523 kts | 304° |
| 2026-04-29 16:51 | -12.74428 | 45.17851 | 33947 ft | 524 kts | 303° |
| 2026-04-29 16:52 | -12.70473 | 45.11566 | 33947 ft | 522 kts | 303° |
| 2026-04-29 16:52 | -12.66507 | 45.05345 | 33949 ft | 523 kts | 303° |
| 2026-04-29 16:53 | -12.62525 | 44.99133 | 33948 ft | 523 kts | 304° |
| 2026-04-29 16:53 | -12.58514 | 44.92886 | 33949 ft | 523 kts | 303° |
| 2026-04-29 16:54 | -12.54530 | 44.86683 | 33947 ft | 521 kts | 303° |
| 2026-04-29 16:54 | -12.50558 | 44.80502 | 33949 ft | 523 kts | 303° |
| 2026-04-29 16:55 | -12.46567 | 44.74295 | 33948 ft | 522 kts | 303° |
| 2026-04-29 16:55 | -12.42577 | 44.68093 | 33950 ft | 522 kts | 303° |
| 2026-04-29 16:56 | -12.38564 | 44.61858 | 33957 ft | 523 kts | 303° |
| 2026-04-29 16:56 | -12.34556 | 44.55638 | 33965 ft | 522 kts | 303° |
| 2026-04-29 16:57 | -12.30569 | 44.49453 | 33978 ft | 521 kts | 303° |
| 2026-04-29 16:57 | -12.26584 | 44.43277 | 33984 ft | 521 kts | 303° |
| 2026-04-29 16:58 | -12.22570 | 44.37058 | 33978 ft | 521 kts | 303° |
| 2026-04-29 16:58 | -12.18555 | 44.30858 | 33967 ft | 520 kts | 304° |
| 2026-04-29 16:59 | -12.14541 | 44.24680 | 33957 ft | 521 kts | 304° |
| 2026-04-29 16:59 | -12.10526 | 44.18484 | 33954 ft | 522 kts | 304° |
| 2026-04-29 17:00 | -12.06543 | 44.12330 | 33949 ft | 520 kts | 304° |
| 2026-04-29 17:00 | -12.02554 | 44.06170 | 33948 ft | 520 kts | 304° |
| 2026-04-29 17:01 | -11.98543 | 43.99981 | 33950 ft | 520 kts | 304° |
| 2026-04-29 17:01 | -11.94559 | 43.93837 | 33950 ft | 519 kts | 304° |
| 2026-04-29 17:02 | -11.90551 | 43.87658 | 33951 ft | 520 kts | 304° |
| 2026-04-29 17:02 | -11.86575 | 43.81531 | 33953 ft | 520 kts | 304° |
| 2026-04-29 17:03 | -11.82556 | 43.75342 | 33951 ft | 521 kts | 304° |
| 2026-04-29 17:03 | -11.78525 | 43.69140 | 33952 ft | 521 kts | 304° |
| 2026-04-29 17:04 | -11.74503 | 43.62958 | 33955 ft | 522 kts | 304° |
| 2026-04-29 17:04 | -11.70519 | 43.56836 | 33956 ft | 521 kts | 304° |
| 2026-04-29 17:05 | -11.66496 | 43.50659 | 33956 ft | 522 kts | 304° |
| 2026-04-29 17:05 | -11.62478 | 43.44494 | 33963 ft | 522 kts | 304° |
| 2026-04-29 17:06 | -11.58457 | 43.38328 | 33963 ft | 522 kts | 304° |
| 2026-04-29 17:06 | -11.54421 | 43.32150 | 33960 ft | 523 kts | 304° |
| 2026-04-29 17:07 | -11.50948 | 43.27070 | 33965 ft | 521 kts | 309° |
| 2026-04-29 17:07 | -11.45257 | 43.20674 | 33962 ft | 521 kts | 314° |
| 2026-04-29 17:08 | -11.40226 | 43.15322 | 33961 ft | 522 kts | 314° |
| 2026-04-29 17:08 | -11.35238 | 43.09933 | 33954 ft | 521 kts | 314° |
| 2026-04-29 17:09 | -11.30286 | 43.04533 | 33954 ft | 522 kts | 314° |
| 2026-04-29 17:09 | -11.25319 | 42.99109 | 33949 ft | 522 kts | 314° |
| 2026-04-29 17:10 | -11.20349 | 42.93685 | 33948 ft | 521 kts | 314° |
| 2026-04-29 17:10 | -11.15399 | 42.88289 | 33949 ft | 522 kts | 314° |
| 2026-04-29 17:11 | -11.10407 | 42.82849 | 33948 ft | 523 kts | 314° |
| 2026-04-29 17:11 | -11.05447 | 42.77446 | 33948 ft | 523 kts | 314° |
| 2026-04-29 17:12 | -11.00448 | 42.72006 | 33948 ft | 522 kts | 314° |
| 2026-04-29 17:12 | -10.96335 | 42.67530 | 33948 ft | 522 kts | 314° |
| 2026-04-29 17:13 | -10.90548 | 42.61238 | 33949 ft | 522 kts | 314° |
| 2026-04-29 17:13 | -10.85569 | 42.55824 | 33948 ft | 523 kts | 314° |
| 2026-04-29 17:14 | -10.80584 | 42.50408 | 33946 ft | 524 kts | 314° |
| 2026-04-29 17:14 | -10.75611 | 42.45023 | 33944 ft | 522 kts | 316° |
| 2026-04-29 17:15 | -10.69873 | 42.40543 | 33952 ft | 520 kts | 329° |
| 2026-04-29 17:15 | -10.63679 | 42.36728 | 33947 ft | 520 kts | 330° |
| 2026-04-29 17:16 | -10.57475 | 42.32937 | 33947 ft | 519 kts | 330° |
| 2026-04-29 17:16 | -10.51271 | 42.29083 | 33950 ft | 520 kts | 329° |
| 2026-04-29 17:17 | -10.45124 | 42.25221 | 33949 ft | 519 kts | 329° |
| 2026-04-29 17:17 | -10.38956 | 42.21336 | 33953 ft | 519 kts | 329° |
| 2026-04-29 17:18 | -10.32798 | 42.17460 | 33955 ft | 520 kts | 329° |
| 2026-04-29 17:18 | -10.26673 | 42.13607 | 33959 ft | 519 kts | 329° |
| 2026-04-29 17:19 | -10.20496 | 42.09724 | 33957 ft | 519 kts | 329° |
| 2026-04-29 17:19 | -10.14302 | 42.05832 | 33963 ft | 519 kts | 329° |
| 2026-04-29 17:20 | -10.08160 | 42.01974 | 33967 ft | 520 kts | 329° |
| 2026-04-29 17:20 | -10.01990 | 41.98100 | 33968 ft | 519 kts | 329° |
| 2026-04-29 17:21 | -9.95837 | 41.94239 | 33966 ft | 519 kts | 329° |
| 2026-04-29 17:21 | -9.89694 | 41.90387 | 33965 ft | 518 kts | 329° |
| 2026-04-29 17:22 | -9.83564 | 41.86542 | 33966 ft | 518 kts | 329° |
| 2026-04-29 17:22 | -9.77403 | 41.82681 | 33967 ft | 520 kts | 329° |
| 2026-04-29 17:23 | -9.71246 | 41.78824 | 33965 ft | 518 kts | 329° |
| 2026-04-29 17:23 | -9.65090 | 41.74970 | 33968 ft | 520 kts | 329° |
| 2026-04-29 17:24 | -9.58947 | 41.71125 | 33966 ft | 519 kts | 329° |
| 2026-04-29 17:24 | -9.52791 | 41.67274 | 33967 ft | 519 kts | 329° |
| 2026-04-29 17:25 | -9.46620 | 41.63416 | 33968 ft | 520 kts | 329° |
| 2026-04-29 17:25 | -9.40458 | 41.59564 | 33967 ft | 518 kts | 329° |
| 2026-04-29 17:26 | -9.34292 | 41.55712 | 33968 ft | 520 kts | 329° |
| 2026-04-29 17:26 | -9.28101 | 41.51846 | 33961 ft | 519 kts | 329° |
| 2026-04-29 17:27 | -9.21926 | 41.47992 | 33961 ft | 519 kts | 329° |
| 2026-04-29 17:27 | -9.15746 | 41.44136 | 33960 ft | 520 kts | 329° |
| 2026-04-29 17:28 | -9.09599 | 41.40302 | 33960 ft | 519 kts | 329° |
| 2026-04-29 17:28 | -9.03435 | 41.36459 | 33960 ft | 519 kts | 329° |
| 2026-04-29 17:29 | -8.97266 | 41.32621 | 33960 ft | 520 kts | 330° |
| 2026-04-29 17:29 | -8.92130 | 41.29436 | 33962 ft | 521 kts | 330° |
| 2026-04-29 17:30 | -8.84917 | 41.24952 | 33962 ft | 520 kts | 329° |
| 2026-04-29 17:30 | -8.78731 | 41.21101 | 33964 ft | 521 kts | 329° |
| 2026-04-29 17:31 | -8.72493 | 41.17219 | 33959 ft | 521 kts | 329° |
| 2026-04-29 17:31 | -8.66359 | 41.13403 | 33958 ft | 520 kts | 329° |
| 2026-04-29 17:32 | -8.60136 | 41.09535 | 33961 ft | 520 kts | 329° |
| 2026-04-29 17:32 | -8.53986 | 41.05713 | 33958 ft | 521 kts | 329° |
| 2026-04-29 17:33 | -8.47790 | 41.01864 | 33959 ft | 520 kts | 329° |
| 2026-04-29 17:33 | -8.41591 | 40.98015 | 33957 ft | 520 kts | 329° |
| 2026-04-29 17:34 | -8.35392 | 40.94166 | 33953 ft | 521 kts | 329° |
| 2026-04-29 17:34 | -8.29210 | 40.90330 | 33950 ft | 521 kts | 329° |
| 2026-04-29 17:35 | -8.19921 | 40.84569 | 33948 ft | 522 kts | 329° |
| 2026-04-29 17:36 | -8.13776 | 40.80639 | 33948 ft | 521 kts | 328° |
| 2026-04-29 17:36 | -8.07698 | 40.76648 | 33948 ft | 520 kts | 328° |
| 2026-04-29 17:37 | -8.01608 | 40.72660 | 33948 ft | 521 kts | 328° |
| 2026-04-29 17:37 | -7.95515 | 40.68684 | 33947 ft | 522 kts | 328° |
| 2026-04-29 17:38 | -7.89416 | 40.64711 | 33947 ft | 522 kts | 328° |
| 2026-04-29 17:38 | -7.83279 | 40.60712 | 33947 ft | 523 kts | 328° |
| 2026-04-29 17:39 | -7.77156 | 40.56827 | 33947 ft | 521 kts | 329° |
| 2026-04-29 17:39 | -7.70957 | 40.52969 | 33947 ft | 523 kts | 329° |
| 2026-04-29 17:39 | -7.67896 | 40.51062 | 33769 ft | 515 kts | 329° |
| 2026-04-29 17:40 | -7.64818 | 40.49142 | 33031 ft | 511 kts | 329° |
| 2026-04-29 17:40 | -7.61831 | 40.47277 | 32326 ft | 508 kts | 329° |
| 2026-04-29 17:40 | -7.58816 | 40.45394 | 31647 ft | 504 kts | 329° |
| 2026-04-29 17:40 | -7.55842 | 40.43535 | 30975 ft | 501 kts | 329° |
| 2026-04-29 17:41 | -7.52909 | 40.41701 | 30308 ft | 498 kts | 329° |
| 2026-04-29 17:41 | -7.49945 | 40.39849 | 29636 ft | 495 kts | 329° |
| 2026-04-29 17:41 | -7.47027 | 40.38026 | 29008 ft | 491 kts | 329° |
| 2026-04-29 17:41 | -7.44142 | 40.36223 | 28499 ft | 485 kts | 329° |
| 2026-04-29 17:42 | -7.41302 | 40.34448 | 28023 ft | 479 kts | 329° |
| 2026-04-29 17:42 | -7.38472 | 40.32684 | 27543 ft | 473 kts | 330° |
| 2026-04-29 17:42 | -7.35698 | 40.30957 | 27071 ft | 467 kts | 330° |
| 2026-04-29 17:42 | -7.32950 | 40.29245 | 26580 ft | 463 kts | 330° |
| 2026-04-29 17:43 | -7.30219 | 40.27542 | 26051 ft | 459 kts | 330° |
| 2026-04-29 17:43 | -7.27509 | 40.25852 | 25523 ft | 455 kts | 330° |
| 2026-04-29 17:43 | -7.24811 | 40.24168 | 24995 ft | 452 kts | 330° |
| 2026-04-29 17:43 | -7.22140 | 40.22501 | 24469 ft | 449 kts | 330° |
| 2026-04-29 17:44 | -7.19520 | 40.20866 | 23950 ft | 445 kts | 330° |
| 2026-04-29 17:44 | -7.16887 | 40.19223 | 23427 ft | 442 kts | 330° |
| 2026-04-29 17:44 | -7.14274 | 40.17592 | 22909 ft | 439 kts | 330° |
| 2026-04-29 17:44 | -7.11667 | 40.15965 | 22389 ft | 436 kts | 330° |
| 2026-04-29 17:45 | -7.09171 | 40.14408 | 21905 ft | 433 kts | 330° |
| 2026-04-29 17:45 | -7.06642 | 40.12832 | 21414 ft | 430 kts | 330° |
| 2026-04-29 17:45 | -7.04101 | 40.11248 | 20918 ft | 427 kts | 330° |
| 2026-04-29 17:45 | -7.01587 | 40.09681 | 20421 ft | 424 kts | 329° |
| 2026-04-29 17:46 | -6.99090 | 40.08125 | 19925 ft | 422 kts | 329° |
| 2026-04-29 17:46 | -6.96580 | 40.06560 | 19423 ft | 419 kts | 329° |
| 2026-04-29 17:46 | -6.94126 | 40.05032 | 18925 ft | 416 kts | 329° |
| 2026-04-29 17:46 | -6.91657 | 40.03493 | 18421 ft | 414 kts | 329° |
| 2026-04-29 17:47 | -6.89204 | 40.01965 | 17917 ft | 411 kts | 328° |
| 2026-04-29 17:47 | -6.86815 | 40.00477 | 17522 ft | 405 kts | 328° |
| 2026-04-29 17:47 | -6.84437 | 39.98996 | 17136 ft | 399 kts | 328° |
| 2026-04-29 17:47 | -6.82059 | 39.97514 | 16739 ft | 393 kts | 328° |
| 2026-04-29 17:48 | -6.79761 | 39.96082 | 16367 ft | 387 kts | 328° |
| 2026-04-29 17:48 | -6.77494 | 39.94669 | 15956 ft | 383 kts | 328° |
| 2026-04-29 17:48 | -6.75228 | 39.93257 | 15538 ft | 378 kts | 328° |
| 2026-04-29 17:48 | -6.72990 | 39.91862 | 15114 ft | 374 kts | 328° |
| 2026-04-29 17:49 | -6.70785 | 39.90489 | 14702 ft | 371 kts | 328° |
| 2026-04-29 17:49 | -6.68604 | 39.89131 | 14280 ft | 367 kts | 328° |
| 2026-04-29 17:49 | -6.66432 | 39.87778 | 13854 ft | 363 kts | 328° |
| 2026-04-29 17:49 | -6.64299 | 39.86450 | 13437 ft | 360 kts | 328° |
| 2026-04-29 17:50 | -6.62184 | 39.85133 | 13016 ft | 357 kts | 328° |
| 2026-04-29 17:50 | -6.60055 | 39.83807 | 12583 ft | 354 kts | 328° |
| 2026-04-29 17:50 | -6.57988 | 39.82520 | 12179 ft | 350 kts | 328° |
| 2026-04-29 17:50 | -6.55909 | 39.81225 | 11802 ft | 346 kts | 328° |
| 2026-04-29 17:51 | -6.53881 | 39.79963 | 11426 ft | 342 kts | 328° |
| 2026-04-29 17:51 | -6.51864 | 39.78708 | 11045 ft | 338 kts | 328° |
| 2026-04-29 17:51 | -6.49861 | 39.77461 | 10700 ft | 332 kts | 328° |
| 2026-04-29 17:51 | -6.47912 | 39.76249 | 10451 ft | 325 kts | 328° |
| 2026-04-29 17:52 | -6.46026 | 39.75075 | 10216 ft | 317 kts | 328° |
| 2026-04-29 17:52 | -6.44767 | 39.74292 | 10078 ft | 311 kts | 328° |
| 2026-04-29 17:52 | -6.42374 | 39.72783 | 9807 ft | 301 kts | 328° |
| 2026-04-29 17:52 | -6.40594 | 39.71653 | 9597 ft | 297 kts | 328° |
| 2026-04-29 17:53 | -6.38858 | 39.70550 | 9388 ft | 294 kts | 328° |
| 2026-04-29 17:53 | -6.37145 | 39.69464 | 9070 ft | 292 kts | 328° |
| 2026-04-29 17:53 | -6.35407 | 39.68362 | 8612 ft | 294 kts | 328° |
| 2026-04-29 17:53 | -6.33689 | 39.67274 | 8241 ft | 293 kts | 328° |
| 2026-04-29 17:54 | -6.31950 | 39.66173 | 7854 ft | 292 kts | 328° |
| 2026-04-29 17:54 | -6.30247 | 39.65094 | 7519 ft | 291 kts | 328° |
| 2026-04-29 17:54 | -6.28558 | 39.63948 | 7157 ft | 291 kts | 317° |
| 2026-04-29 17:54 | -6.27433 | 39.62282 | 6732 ft | 289 kts | 285° |
| 2026-04-29 17:55 | -6.27278 | 39.60328 | 6391 ft | 282 kts | 256° |
| 2026-04-29 17:55 | -6.27851 | 39.58468 | 6087 ft | 277 kts | 244° |
| 2026-04-29 17:55 | -6.28647 | 39.56716 | 5785 ft | 274 kts | 240° |
| 2026-04-29 17:55 | -6.29511 | 39.54991 | 5486 ft | 273 kts | 239° |
| 2026-04-29 17:56 | -6.30381 | 39.53295 | 5205 ft | 270 kts | 239° |
| 2026-04-29 17:56 | -6.31238 | 39.51635 | 4916 ft | 269 kts | 239° |
| 2026-04-29 17:56 | -6.32106 | 39.49952 | 4626 ft | 268 kts | 239° |
| 2026-04-29 17:56 | -6.32954 | 39.48307 | 4362 ft | 265 kts | 239° |
| 2026-04-29 17:57 | -6.33792 | 39.46680 | 4153 ft | 260 kts | 239° |
| 2026-04-29 17:57 | -6.34614 | 39.45082 | 4006 ft | 251 kts | 239° |
| 2026-04-29 17:57 | -6.35393 | 39.43566 | 3965 ft | 238 kts | 238° |
| 2026-04-29 17:57 | -6.35896 | 39.42589 | 3961 ft | 230 kts | 239° |
| 2026-04-29 17:58 | -6.36868 | 39.40704 | 3960 ft | 229 kts | 238° |
| 2026-04-29 17:58 | -6.37607 | 39.39272 | 3959 ft | 228 kts | 238° |
| 2026-04-29 17:58 | -6.38333 | 39.37865 | 3960 ft | 229 kts | 239° |
| 2026-04-29 17:58 | -6.39062 | 39.36423 | 3952 ft | 230 kts | 243° |
| 2026-04-29 17:59 | -6.39269 | 39.34833 | 3952 ft | 239 kts | 280° |
| 2026-04-29 17:59 | -6.38493 | 39.33353 | 3951 ft | 245 kts | 316° |
| 2026-04-29 17:59 | -6.36990 | 39.32532 | 3796 ft | 247 kts | 348° |
| 2026-04-29 17:59 | -6.35309 | 39.32231 | 3628 ft | 243 kts | 353° |
| 2026-04-29 18:00 | -6.33669 | 39.31997 | 3455 ft | 234 kts | 353° |
| 2026-04-29 18:00 | -6.32073 | 39.31771 | 3293 ft | 225 kts | 353° |
| 2026-04-29 18:00 | -6.30529 | 39.31551 | 3121 ft | 220 kts | 353° |
| 2026-04-29 18:00 | -6.29020 | 39.31337 | 2992 ft | 219 kts | 353° |
| 2026-04-29 18:01 | -6.27518 | 39.31127 | 2957 ft | 218 kts | 353° |
| 2026-04-29 18:01 | -6.25992 | 39.30914 | 2952 ft | 218 kts | 353° |
| 2026-04-29 18:01 | -6.24494 | 39.30706 | 2949 ft | 217 kts | 353° |
| 2026-04-29 18:01 | -6.22989 | 39.30499 | 2949 ft | 217 kts | 353° |
| 2026-04-29 18:02 | -6.21474 | 39.30290 | 2952 ft | 218 kts | 353° |
| 2026-04-29 18:02 | -6.19961 | 39.30082 | 2954 ft | 219 kts | 353° |
| 2026-04-29 18:02 | -6.18442 | 39.29871 | 2959 ft | 219 kts | 353° |
| 2026-04-29 18:02 | -6.16899 | 39.29658 | 2963 ft | 219 kts | 353° |
| 2026-04-29 18:03 | -6.15394 | 39.29452 | 2971 ft | 220 kts | 353° |
| 2026-04-29 18:03 | -6.13853 | 39.29242 | 2901 ft | 221 kts | 353° |
| 2026-04-29 18:03 | -6.12320 | 39.29036 | 2813 ft | 219 kts | 353° |
| 2026-04-29 18:03 | -6.10847 | 39.28839 | 2722 ft | 210 kts | 353° |
| 2026-04-29 18:04 | -6.09520 | 39.28264 | 2599 ft | 209 kts | 311° |
| 2026-04-29 18:04 | -6.08907 | 39.27026 | 2505 ft | 196 kts | 268° |
| 2026-04-29 18:04 | -6.08938 | 39.25665 | 2480 ft | 193 kts | 262° |
| 2026-04-29 18:04 | -6.09029 | 39.24316 | 2468 ft | 194 kts | 262° |
| 2026-04-29 18:05 | -6.09131 | 39.22995 | 2463 ft | 182 kts | 261° |
| 2026-04-29 18:05 | -6.09345 | 39.21786 | 2445 ft | 180 kts | 242° |
| 2026-04-29 18:05 | -6.10128 | 39.20794 | 2518 ft | 184 kts | 210° |
| 2026-04-29 18:05 | -6.11353 | 39.20522 | 2519 ft | 181 kts | 170° |
| 2026-04-29 18:06 | -6.12468 | 39.21050 | 2258 ft | 171 kts | 149° |
| 2026-04-29 18:06 | -6.13464 | 39.21630 | 1957 ft | 164 kts | 155° |
| 2026-04-29 18:06 | -6.14537 | 39.21904 | 1627 ft | 155 kts | 176° |
| 2026-04-29 18:06 | -6.15604 | 39.21840 | 1238 ft | 151 kts | 179° |
| 2026-04-29 18:07 | -6.16634 | 39.21930 | 979 ft | 143 kts | 173° |
| 2026-04-29 18:07 | -6.17634 | 39.22020 | 729 ft | 146 kts | 172° |
| 2026-04-29 18:07 | -6.18638 | 39.22130 | 532 ft | 144 kts | 173° |
| 2026-04-29 18:07 | -6.19657 | 39.22231 | 379 ft | 146 kts | 173° |
| 2026-04-29 18:08 | -6.20673 | 39.22330 | 205 ft | 145 kts | 172° |
| 2026-04-29 18:08 | -6.21663 | 39.22434 | 65 ft | 137 kts | 172° |
| 2026-04-29 18:08 | -6.22490 | 39.22520 | 55 ft | 97 kts | 173° |
| 2026-04-29 18:08 | -6.23017 | 39.22571 | 56 ft | 54 kts | 175° |
| 2026-04-29 18:09 | -6.23317 | 39.22602 | 58 ft | 40 kts | 175° |
| 2026-04-29 18:09 | -6.23588 | 39.22630 | 56 ft | 38 kts | 174° |
| 2026-04-29 18:09 | -6.23740 | 39.22643 | 55 ft | 12 kts | 175° |
| 2026-04-29 18:09 | -6.23799 | 39.22608 | 56 ft | 9 kts | 251° |
| 2026-04-29 18:10 | -6.23808 | 39.22553 | 57 ft | 6 kts | 264° |
| 2026-04-29 18:10 | -6.23810 | 39.22517 | 57 ft | 0 kts | 274° |
| 2026-04-29 18:11 | -6.23810 | 39.22515 | 57 ft | 0 kts | 275° |
| 2026-04-29 18:12 | -6.23799 | 39.22493 | 58 ft | 6 kts | 311° |
| 2026-04-29 18:12 | -6.23737 | 39.22467 | 58 ft | 12 kts | 354° |
| 2026-04-29 18:12 | -6.23644 | 39.22459 | 59 ft | 13 kts | 354° |
| 2026-04-29 18:12 | -6.23556 | 39.22451 | 59 ft | 12 kts | 355° |
| 2026-04-29 18:13 | -6.23475 | 39.22443 | 59 ft | 11 kts | 354° |
| 2026-04-29 18:13 | -6.23400 | 39.22436 | 59 ft | 10 kts | 354° |
| 2026-04-29 18:13 | -6.23334 | 39.22430 | 59 ft | 9 kts | 355° |
| 2026-04-29 18:13 | -6.23273 | 39.22424 | 59 ft | 8 kts | 355° |
| 2026-04-29 18:14 | -6.23219 | 39.22419 | 59 ft | 7 kts | 355° |
| 2026-04-29 18:14 | -6.23173 | 39.22415 | 59 ft | 6 kts | 355° |
| 2026-04-29 18:14 | -6.23128 | 39.22411 | 59 ft | 6 kts | 354° |
| 2026-04-29 18:14 | -6.23078 | 39.22406 | 58 ft | 7 kts | 354° |
| 2026-04-29 18:15 | -6.23015 | 39.22400 | 58 ft | 11 kts | 354° |
| 2026-04-29 18:15 | -6.22917 | 39.22390 | 58 ft | 16 kts | 354° |
| 2026-04-29 18:15 | -6.22785 | 39.22377 | 57 ft | 21 kts | 354° |
| 2026-04-29 18:15 | -6.22617 | 39.22361 | 57 ft | 25 kts | 352° |
| 2026-04-29 18:16 | -6.22459 | 39.22344 | 57 ft | 13 kts | 354° |
| 2026-04-29 18:16 | -6.22418 | 39.22285 | 58 ft | 11 kts | 261° |
| 2026-04-29 18:16 | -6.22429 | 39.22218 | 58 ft | 4 kts | 261° |
| 2026-04-29 18:16 | -6.22429 | 39.22195 | 58 ft | 2 kts | 295° |
| 2026-04-29 18:17 | -6.22420 | 39.22187 | 58 ft | 1 kts | 334° |
| 2026-04-29 18:17 | -6.22416 | 39.22185 | 58 ft | 1 kts | 335° |
| 2026-04-29 18:17 | -6.22398 | 39.22179 | 58 ft | 3 kts | 350° |
| 2026-04-29 18:17 | -6.22374 | 39.22176 | 58 ft | 3 kts | 352° |
| 2026-04-29 18:18 | -6.22356 | 39.22173 | 58 ft | 1 kts | 354° |
| 2026-04-29 18:18 | -6.22347 | 39.22172 | 58 ft | 0 kts | 353° |
| 2026-04-29 18:18 | -6.22346 | 39.22172 | 58 ft | 0 kts | 353° |